Nambucca Heads, Australia
Current Conditions -  °F | °C
As of 8:58 PM on Sunday 23 Nov 2014 (Local Time) from YCFS Reporting Station
Clear Clear  
Wind Chill: 73°   Ceiling: Unl
Heat Index: 73°   Visibility: 5mi
Dew Point: 68°   Wind: 12mph
Humidity: 83%   Direction: 30°NNE
Pressure: 29.91"   Gusts: NA
Location:  30.64°S, 153°E
Report Text: YCFS 230958Z AUTO 03010KT 8000 // NCD 23/20 Q1013
Loading
Personal Weather Stations






























Interactive Weather Map New forecast layout! Learn more

10-Day Weather Forecast

Advertisements
Track Severe Weather on mobile